Αναφορές METAR Αεροδρομίων

 

LGTS - THESSALONIKI - GREECE
Ενημερώθηκε: 22/02/2020 21:50
Αίθριος
Αίθριος
 Ανεμος από ΔΒΔ
Ανεμος: ΔΒΔ 15 km/h
Θερμοκρασία: 9°C
Wind Chill: 7°C
Σημείο Δρόσου: 0°C
Υγρασία: 54%
Βαρόμετρο: 1028 hPa
Περίληψη: Αίθριος
Visibility: greater than 10 km
2020/02/22 19:50 LGTS 221950Z 29008KT CAVOK 09/M00 Q1028 NOSIG
LGLR - LARTISA - GREECE
Ενημερώθηκε: 22/02/2020 21:50
Αραιές Νεφώσεις
Αραιές Νεφώσεις
 Ανεμος από calm
Ανεμος: Απνοια
Θερμοκρασία: 5°C
Σημείο Δρόσου: -2°C
Υγρασία: 61%
Βαρόμετρο: 1028 hPa
Clouds: Αραιές Νεφώσεις
Visibility: 10 km
Cloud details: Αραιές Νεφώσεις 1067 m
2020/02/22 19:50 LGLR 221950Z 00000KT 9999 FEW035 05/M02 Q1028 RMK FEW080 BLU
 
LGKZ - KOZANI - GREECE
Ενημερώθηκε: 22/02/2020 21:50

 Ανεμος από ΒΒΔ
Ανεμος: ΒΒΔ 11 km/h
Θερμοκρασία: 2°C
Wind Chill: -1°C
Σημείο Δρόσου: -7°C
Υγρασία: 52%
Βαρόμετρο: 1028 hPa
2020/02/22 19:50 LGKZ 221950Z AUTO 34006KT 310V010 //// // ////// 02/M07 Q1028 RE//
LGKV - KAVALA - GREECE
Ενημερώθηκε: 22/02/2020 21:50
Μερικώς νεφελώδης
Μερικώς νεφελώδης
 Ανεμος από ΑΒΑ
Ανεμος: ΑΒΑ 17 km/h
Θερμοκρασία: 7°C
Wind Chill: 4°C
Σημείο Δρόσου: 3°C
Υγρασία: 76%
Βαρόμετρο: 1028 hPa
Clouds: Μερικώς νεφελώδης
Visibility: 10 km
Cloud details: Αραιές Νεφώσεις 914 m
Μερικώς νεφελώδης 2438 m
2020/02/22 19:50 LGKV 221950Z 07009KT 9999 FEW030 SCT080 07/03 Q1028
 
LGIO - IOANNINA - GREECE
Ενημερώθηκε: 22/02/2020 21:50

 Ανεμος από ΝΔ
Ανεμος: ΝΔ 7 km/h
Θερμοκρασία: 4°C
Wind Chill: 2°C
Σημείο Δρόσου: -5°C
Υγρασία: 52%
Βαρόμετρο: 1027 hPa
2020/02/22 19:50 LGIO 221950Z AUTO 23004KT 200V300 //// // ////// 04/M05 Q1027 RE//
LGBL - BOLOS - GREECE
Ενημερώθηκε: 22/02/2020 21:50
Αραιές Νεφώσεις
Αραιές Νεφώσεις
 Ανεμος από Δ
Ανεμος: Δ 7 km/h
Θερμοκρασία: 7°C
Wind Chill: 6°C
Σημείο Δρόσου: -1°C
Υγρασία: 57%
Βαρόμετρο: 1028 hPa
Clouds: Αραιές Νεφώσεις
Visibility: 10 km
Cloud details: Αραιές Νεφώσεις 914 m
2020/02/22 19:50 LGBL 221950Z 26004KT 9999 FEW030 07/M01 Q1028
 
LGMT - MITILINI - GREECE
Ενημερώθηκε: 22/02/2020 19:50
NOT Current
Μερικώς νεφελώδης
Μερικώς νεφελώδης
 Ανεμος από Β
Ανεμος: Β 28 km/h
Θερμοκρασία: 9°C
Wind Chill: 6°C
Σημείο Δρόσου: 4°C
Υγρασία: 71%
Βαρόμετρο: 1024 hPa
Clouds: Μερικώς νεφελώδης
Visibility: 10 km
Cloud details: Μερικώς νεφελώδης 762 m
2020/02/22 17:50 LGMT 221750Z 01015KT 9999 SCT025 09/04 Q1024
LGAV - ATHENS - GREECE
Ενημερώθηκε: 22/02/2020 21:50
Σχεδόν νεφελώδης
Σχεδόν νεφελώδης
 Ανεμος από Β
Ανεμος: Β 15 km/h
Θερμοκρασία: 8°C
Wind Chill: 5°C
Σημείο Δρόσου: 3°C
Υγρασία: 71%
Βαρόμετρο: 1025 hPa
Clouds: Σχεδόν νεφελώδης
Visibility: 10 km
Cloud details: Αραιές Νεφώσεις 549 m
Μερικώς νεφελώδης 914 m
Σχεδόν νεφελώδης 2134 m
2020/02/22 19:50 LGAV 221950Z 35008KT 9999 FEW018 SCT030 BKN070 08/03 Q1025 NOSIG
 
LGRP - RODOS - GREECE
Ενημερώθηκε: 22/02/2020 21:50
Αραιές Νεφώσεις
Αραιές Νεφώσεις
 Ανεμος από ΒΑ
Ανεμος: ΒΑ 9 km/h
Θερμοκρασία: 13°C
Σημείο Δρόσου: 5°C
Υγρασία: 59%
Βαρόμετρο: 1015 hPa
Clouds: Αραιές Νεφώσεις
Visibility: 10 km
Cloud details: Αραιές Νεφώσεις 610 m
2020/02/22 19:50 LGRP 221950Z 05005KT 9999 FEW020 13/05 Q1015 NOSIG
LGIR - HRAKLIO/KRITI - GREECE
Ενημερώθηκε: 22/02/2020 21:50
Μερικώς νεφελώδης
Μερικώς νεφελώδης
 Ανεμος από Β
Ανεμος: Β 33 km/h
Θερμοκρασία: 12°C
Σημείο Δρόσου: 4°C
Υγρασία: 58%
Βαρόμετρο: 1021 hPa
Clouds: Μερικώς νεφελώδης
Visibility: 10 km
Cloud details: Αραιές Νεφώσεις 549 m
Μερικώς νεφελώδης 762 m
2020/02/22 19:50 LGIR 221950Z 35018KT 9999 FEW018 SCT025 12/04 Q1021 NOSIG
 
LGMK - MIKONOS - GREECE
Ενημερώθηκε: 22/02/2020 19:50
NOT Current
Σχεδόν νεφελώδης
Σχεδόν νεφελώδης
 Ανεμος από Β
Ανεμος: Β 39 km/h, Ριπή: 61 km/h
Θερμοκρασία: 10°C
Wind Chill: 6°C
Σημείο Δρόσου: 0°C
Υγρασία: 50%
Βαρόμετρο: 1020 hPa
Clouds: Σχεδόν νεφελώδης
Visibility: 10 km
Cloud details: Σχεδόν νεφελώδης 610 m
2020/02/22 17:50 LGMK 221750Z 36021G33KT 9999 BKN020 10/00 Q1020
LGKR - KERKIRA - GREECE
Ενημερώθηκε: 22/02/2020 21:50
Αίθριος
Αίθριος
 Ανεμος από calm
Ανεμος: Απνοια
Θερμοκρασία: 7°C
Σημείο Δρόσου: 2°C
Υγρασία: 71%
Βαρόμετρο: 1027 hPa
Περίληψη: Αίθριος
Visibility: greater than 10 km
2020/02/22 19:50 LGKR 221950Z 00000KT CAVOK 07/02 Q1027 NOSIG